sensor_id;sensor_type;location;lat;lon;timestamp;P1;durP1;ratioP1;P2;durP2;ratioP2
11498;SDS011;5806;48.748;9.278;2024-01-15T00:00:37;30.77;;;14.77;;
11498;SDS011;5806;48.748;9.278;2024-01-15T00:03:06;28.00;;;14.53;;
11498;SDS011;5806;48.748;9.278;2024-01-15T00:05:33;30.90;;;16.37;;
11498;SDS011;5806;48.748;9.278;2024-01-15T00:08:00;33.70;;;17.13;;
11498;SDS011;5806;48.748;9.278;2024-01-15T00:10:28;32.00;;;16.97;;
11498;SDS011;5806;48.748;9.278;2024-01-15T00:12:55;31.60;;;17.00;;
11498;SDS011;5806;48.748;9.278;2024-01-15T00:15:23;34.90;;;17.40;;
11498;SDS011;5806;48.748;9.278;2024-01-15T00:17:52;30.63;;;17.30;;
11498;SDS011;5806;48.748;9.278;2024-01-15T00:20:20;31.17;;;16.70;;
11498;SDS011;5806;48.748;9.278;2024-01-15T00:22:47;35.60;;;17.83;;
11498;SDS011;5806;48.748;9.278;2024-01-15T00:25:15;33.07;;;17.13;;
11498;SDS011;5806;48.748;9.278;2024-01-15T00:27:43;31.50;;;17.03;;
11498;SDS011;5806;48.748;9.278;2024-01-15T00:30:10;36.63;;;17.40;;
11498;SDS011;5806;48.748;9.278;2024-01-15T00:32:38;35.53;;;17.30;;
11498;SDS011;5806;48.748;9.278;2024-01-15T00:35:06;37.53;;;17.60;;
11498;SDS011;5806;48.748;9.278;2024-01-15T00:37:33;32.33;;;17.13;;
11498;SDS011;5806;48.748;9.278;2024-01-15T00:40:01;35.63;;;17.07;;
11498;SDS011;5806;48.748;9.278;2024-01-15T00:42:28;33.10;;;17.73;;
11498;SDS011;5806;48.748;9.278;2024-01-15T00:44:56;31.37;;;17.33;;
11498;SDS011;5806;48.748;9.278;2024-01-15T00:47:23;35.37;;;17.13;;
11498;SDS011;5806;48.748;9.278;2024-01-15T00:49:51;33.07;;;17.07;;
11498;SDS011;5806;48.748;9.278;2024-01-15T00:52:18;32.03;;;17.17;;
11498;SDS011;5806;48.748;9.278;2024-01-15T00:54:45;36.60;;;17.77;;
11498;SDS011;5806;48.748;9.278;2024-01-15T00:57:13;32.73;;;17.93;;
11498;SDS011;5806;48.748;9.278;2024-01-15T00:59:40;38.87;;;17.80;;
11498;SDS011;5806;48.748;9.278;2024-01-15T01:02:08;37.17;;;18.40;;
11498;SDS011;5806;48.748;9.278;2024-01-15T01:04:35;35.87;;;18.53;;
11498;SDS011;5806;48.748;9.278;2024-01-15T01:07:03;33.40;;;18.37;;
11498;SDS011;5806;48.748;9.278;2024-01-15T01:09:30;36.00;;;18.87;;
11498;SDS011;5806;48.748;9.278;2024-01-15T01:11:58;37.40;;;18.40;;
11498;SDS011;5806;48.748;9.278;2024-01-15T01:14:25;36.50;;;18.47;;
11498;SDS011;5806;48.748;9.278;2024-01-15T01:16:52;33.97;;;17.50;;
11498;SDS011;5806;48.748;9.278;2024-01-15T01:19:20;41.70;;;19.57;;
11498;SDS011;5806;48.748;9.278;2024-01-15T01:21:47;38.87;;;18.57;;
11498;SDS011;5806;48.748;9.278;2024-01-15T01:24:16;35.23;;;18.73;;
11498;SDS011;5806;48.748;9.278;2024-01-15T01:26:43;34.13;;;17.33;;
11498;SDS011;5806;48.748;9.278;2024-01-15T01:29:12;35.27;;;18.37;;
11498;SDS011;5806;48.748;9.278;2024-01-15T01:31:43;37.03;;;18.93;;
11498;SDS011;5806;48.748;9.278;2024-01-15T01:34:10;34.00;;;17.43;;
11498;SDS011;5806;48.748;9.278;2024-01-15T01:36:39;35.37;;;18.73;;
11498;SDS011;5806;48.748;9.278;2024-01-15T01:39:07;32.40;;;17.00;;
11498;SDS011;5806;48.748;9.278;2024-01-15T01:41:35;32.00;;;17.70;;
11498;SDS011;5806;48.748;9.278;2024-01-15T01:44:02;31.17;;;17.73;;
11498;SDS011;5806;48.748;9.278;2024-01-15T01:46:30;34.83;;;18.23;;
11498;SDS011;5806;48.748;9.278;2024-01-15T01:48:58;29.50;;;16.40;;
11498;SDS011;5806;48.748;9.278;2024-01-15T01:51:28;35.07;;;18.30;;
11498;SDS011;5806;48.748;9.278;2024-01-15T01:53:56;33.27;;;17.63;;
11498;SDS011;5806;48.748;9.278;2024-01-15T01:56:23;33.47;;;18.70;;
11498;SDS011;5806;48.748;9.278;2024-01-15T01:58:51;27.00;;;16.90;;
11498;SDS011;5806;48.748;9.278;2024-01-15T02:01:18;32.53;;;17.70;;
11498;SDS011;5806;48.748;9.278;2024-01-15T02:03:46;31.63;;;17.43;;
11498;SDS011;5806;48.748;9.278;2024-01-15T02:06:13;30.20;;;17.23;;
11498;SDS011;5806;48.748;9.278;2024-01-15T02:08:42;29.67;;;16.33;;
11498;SDS011;5806;48.748;9.278;2024-01-15T02:11:10;29.47;;;17.70;;
11498;SDS011;5806;48.748;9.278;2024-01-15T02:13:38;34.23;;;17.57;;
11498;SDS011;5806;48.748;9.278;2024-01-15T02:16:06;33.10;;;16.17;;
11498;SDS011;5806;48.748;9.278;2024-01-15T02:18:43;28.30;;;16.13;;
11498;SDS011;5806;48.748;9.278;2024-01-15T02:21:11;34.67;;;16.53;;
11498;SDS011;5806;48.748;9.278;2024-01-15T02:23:38;29.57;;;16.00;;
11498;SDS011;5806;48.748;9.278;2024-01-15T02:26:06;32.73;;;16.57;;
11498;SDS011;5806;48.748;9.278;2024-01-15T02:28:34;36.10;;;17.93;;
11498;SDS011;5806;48.748;9.278;2024-01-15T02:31:01;32.40;;;16.60;;
11498;SDS011;5806;48.748;9.278;2024-01-15T02:33:29;30.20;;;15.47;;
11498;SDS011;5806;48.748;9.278;2024-01-15T02:35:56;30.03;;;16.90;;
11498;SDS011;5806;48.748;9.278;2024-01-15T02:38:24;35.13;;;17.80;;
11498;SDS011;5806;48.748;9.278;2024-01-15T02:40:51;30.00;;;17.40;;
11498;SDS011;5806;48.748;9.278;2024-01-15T02:43:18;32.23;;;17.60;;
11498;SDS011;5806;48.748;9.278;2024-01-15T02:45:46;29.63;;;17.13;;
11498;SDS011;5806;48.748;9.278;2024-01-15T02:48:13;32.67;;;18.47;;
11498;SDS011;5806;48.748;9.278;2024-01-15T02:50:41;33.03;;;16.80;;
11498;SDS011;5806;48.748;9.278;2024-01-15T02:53:08;34.90;;;18.03;;
11498;SDS011;5806;48.748;9.278;2024-01-15T02:55:36;29.17;;;17.57;;
11498;SDS011;5806;48.748;9.278;2024-01-15T02:58:03;32.20;;;16.83;;
11498;SDS011;5806;48.748;9.278;2024-01-15T03:00:31;30.80;;;17.40;;
11498;SDS011;5806;48.748;9.278;2024-01-15T03:02:58;29.87;;;16.40;;
11498;SDS011;5806;48.748;9.278;2024-01-15T03:05:25;32.00;;;15.67;;
11498;SDS011;5806;48.748;9.278;2024-01-15T03:07:53;31.07;;;16.23;;
11498;SDS011;5806;48.748;9.278;2024-01-15T03:10:20;30.67;;;15.30;;
11498;SDS011;5806;48.748;9.278;2024-01-15T03:12:48;30.30;;;15.80;;
11498;SDS011;5806;48.748;9.278;2024-01-15T03:15:15;29.20;;;16.20;;
11498;SDS011;5806;48.748;9.278;2024-01-15T03:17:44;31.30;;;16.00;;
11498;SDS011;5806;48.748;9.278;2024-01-15T03:20:11;34.13;;;16.47;;
11498;SDS011;5806;48.748;9.278;2024-01-15T03:22:38;31.87;;;17.43;;
11498;SDS011;5806;48.748;9.278;2024-01-15T03:25:06;28.57;;;16.33;;
11498;SDS011;5806;48.748;9.278;2024-01-15T03:27:34;30.83;;;15.67;;
11498;SDS011;5806;48.748;9.278;2024-01-15T03:30:01;28.07;;;15.40;;
11498;SDS011;5806;48.748;9.278;2024-01-15T03:32:29;26.70;;;15.03;;
11498;SDS011;5806;48.748;9.278;2024-01-15T03:34:56;25.03;;;14.33;;
11498;SDS011;5806;48.748;9.278;2024-01-15T03:37:24;29.13;;;16.10;;
11498;SDS011;5806;48.748;9.278;2024-01-15T03:39:51;29.17;;;15.60;;
11498;SDS011;5806;48.748;9.278;2024-01-15T03:42:18;29.13;;;15.13;;
11498;SDS011;5806;48.748;9.278;2024-01-15T03:44:46;30.27;;;16.53;;
11498;SDS011;5806;48.748;9.278;2024-01-15T03:47:13;31.40;;;16.47;;
11498;SDS011;5806;48.748;9.278;2024-01-15T03:49:41;28.20;;;14.97;;
11498;SDS011;5806;48.748;9.278;2024-01-15T03:52:08;27.40;;;16.57;;
11498;SDS011;5806;48.748;9.278;2024-01-15T03:54:35;28.07;;;15.90;;
11498;SDS011;5806;48.748;9.278;2024-01-15T03:57:03;31.27;;;16.73;;
11498;SDS011;5806;48.748;9.278;2024-01-15T03:59:31;29.90;;;15.93;;
11498;SDS011;5806;48.748;9.278;2024-01-15T04:01:58;31.00;;;16.27;;
11498;SDS011;5806;48.748;9.278;2024-01-15T04:04:25;30.80;;;16.30;;
11498;SDS011;5806;48.748;9.278;2024-01-15T04:06:53;28.13;;;16.33;;
11498;SDS011;5806;48.748;9.278;2024-01-15T04:09:20;28.20;;;16.93;;
11498;SDS011;5806;48.748;9.278;2024-01-15T04:11:48;29.80;;;16.60;;
11498;SDS011;5806;48.748;9.278;2024-01-15T04:14:15;33.00;;;16.00;;
11498;SDS011;5806;48.748;9.278;2024-01-15T04:16:43;30.97;;;16.60;;
11498;SDS011;5806;48.748;9.278;2024-01-15T04:19:10;28.60;;;15.13;;
11498;SDS011;5806;48.748;9.278;2024-01-15T04:21:37;27.87;;;16.03;;
11498;SDS011;5806;48.748;9.278;2024-01-15T04:24:05;29.27;;;16.97;;
11498;SDS011;5806;48.748;9.278;2024-01-15T04:26:33;28.33;;;16.30;;
11498;SDS011;5806;48.748;9.278;2024-01-15T04:29:00;26.87;;;16.37;;
11498;SDS011;5806;48.748;9.278;2024-01-15T04:31:27;28.40;;;16.33;;
11498;SDS011;5806;48.748;9.278;2024-01-15T04:33:55;26.80;;;15.13;;
11498;SDS011;5806;48.748;9.278;2024-01-15T04:36:22;27.27;;;16.50;;
11498;SDS011;5806;48.748;9.278;2024-01-15T04:38:50;26.53;;;16.03;;
11498;SDS011;5806;48.748;9.278;2024-01-15T04:41:17;26.80;;;15.57;;
11498;SDS011;5806;48.748;9.278;2024-01-15T04:43:44;27.10;;;15.73;;
11498;SDS011;5806;48.748;9.278;2024-01-15T04:46:12;25.47;;;14.77;;
11498;SDS011;5806;48.748;9.278;2024-01-15T04:48:40;27.83;;;16.40;;
11498;SDS011;5806;48.748;9.278;2024-01-15T04:51:08;25.50;;;15.77;;
11498;SDS011;5806;48.748;9.278;2024-01-15T04:53:36;30.07;;;16.23;;
11498;SDS011;5806;48.748;9.278;2024-01-15T04:56:03;30.70;;;16.33;;
11498;SDS011;5806;48.748;9.278;2024-01-15T04:58:31;27.07;;;15.97;;
11498;SDS011;5806;48.748;9.278;2024-01-15T05:00:58;29.10;;;16.10;;
11498;SDS011;5806;48.748;9.278;2024-01-15T05:03:26;27.03;;;14.77;;
11498;SDS011;5806;48.748;9.278;2024-01-15T05:05:53;29.43;;;15.17;;
11498;SDS011;5806;48.748;9.278;2024-01-15T05:08:20;25.67;;;14.17;;
11498;SDS011;5806;48.748;9.278;2024-01-15T05:10:48;26.67;;;14.23;;
11498;SDS011;5806;48.748;9.278;2024-01-15T05:13:15;23.93;;;13.77;;
11498;SDS011;5806;48.748;9.278;2024-01-15T05:15:43;24.43;;;14.20;;
11498;SDS011;5806;48.748;9.278;2024-01-15T05:18:10;22.10;;;13.17;;
11498;SDS011;5806;48.748;9.278;2024-01-15T05:20:38;20.33;;;13.30;;
11498;SDS011;5806;48.748;9.278;2024-01-15T05:23:05;21.03;;;12.90;;
11498;SDS011;5806;48.748;9.278;2024-01-15T05:25:33;20.60;;;12.40;;
11498;SDS011;5806;48.748;9.278;2024-01-15T05:28:00;21.70;;;13.17;;
11498;SDS011;5806;48.748;9.278;2024-01-15T05:30:28;23.67;;;13.07;;
11498;SDS011;5806;48.748;9.278;2024-01-15T05:32:55;23.93;;;14.67;;
11498;SDS011;5806;48.748;9.278;2024-01-15T05:35:23;22.03;;;13.60;;
11498;SDS011;5806;48.748;9.278;2024-01-15T05:37:51;24.03;;;12.87;;
11498;SDS011;5806;48.748;9.278;2024-01-15T05:40:18;21.00;;;11.83;;
11498;SDS011;5806;48.748;9.278;2024-01-15T05:42:45;20.57;;;12.57;;
11498;SDS011;5806;48.748;9.278;2024-01-15T05:45:13;18.77;;;12.27;;
11498;SDS011;5806;48.748;9.278;2024-01-15T05:47:40;20.93;;;11.63;;
11498;SDS011;5806;48.748;9.278;2024-01-15T05:50:09;21.83;;;12.37;;
11498;SDS011;5806;48.748;9.278;2024-01-15T05:52:37;18.90;;;11.97;;
11498;SDS011;5806;48.748;9.278;2024-01-15T05:55:04;19.57;;;11.47;;
11498;SDS011;5806;48.748;9.278;2024-01-15T05:57:32;20.80;;;11.50;;
11498;SDS011;5806;48.748;9.278;2024-01-15T05:59:59;19.97;;;12.70;;
11498;SDS011;5806;48.748;9.278;2024-01-15T06:02:27;20.20;;;11.13;;
11498;SDS011;5806;48.748;9.278;2024-01-15T06:04:54;18.93;;;11.00;;
11498;SDS011;5806;48.748;9.278;2024-01-15T06:07:22;17.27;;;11.23;;
11498;SDS011;5806;48.748;9.278;2024-01-15T06:09:49;19.50;;;10.90;;
11498;SDS011;5806;48.748;9.278;2024-01-15T06:12:17;19.77;;;10.67;;
11498;SDS011;5806;48.748;9.278;2024-01-15T06:14:44;18.10;;;10.90;;
11498;SDS011;5806;48.748;9.278;2024-01-15T06:17:11;15.10;;;10.43;;
11498;SDS011;5806;48.748;9.278;2024-01-15T06:19:39;20.50;;;11.80;;
11498;SDS011;5806;48.748;9.278;2024-01-15T06:22:06;19.27;;;11.47;;
11498;SDS011;5806;48.748;9.278;2024-01-15T06:24:34;17.57;;;10.10;;
11498;SDS011;5806;48.748;9.278;2024-01-15T06:27:01;19.20;;;11.57;;
11498;SDS011;5806;48.748;9.278;2024-01-15T06:29:29;18.93;;;11.93;;
11498;SDS011;5806;48.748;9.278;2024-01-15T06:31:57;19.80;;;11.23;;
11498;SDS011;5806;48.748;9.278;2024-01-15T06:34:24;18.97;;;11.40;;
11498;SDS011;5806;48.748;9.278;2024-01-15T06:36:51;20.67;;;12.30;;
11498;SDS011;5806;48.748;9.278;2024-01-15T06:39:19;22.00;;;12.03;;
11498;SDS011;5806;48.748;9.278;2024-01-15T06:41:47;19.23;;;11.47;;
11498;SDS011;5806;48.748;9.278;2024-01-15T06:44:14;22.90;;;12.20;;
11498;SDS011;5806;48.748;9.278;2024-01-15T06:46:42;19.50;;;10.83;;
11498;SDS011;5806;48.748;9.278;2024-01-15T06:49:10;17.03;;;11.57;;
11498;SDS011;5806;48.748;9.278;2024-01-15T06:51:38;16.87;;;11.13;;
11498;SDS011;5806;48.748;9.278;2024-01-15T06:54:05;17.47;;;11.43;;
11498;SDS011;5806;48.748;9.278;2024-01-15T06:56:33;21.43;;;12.23;;
11498;SDS011;5806;48.748;9.278;2024-01-15T06:59:00;16.60;;;11.40;;
11498;SDS011;5806;48.748;9.278;2024-01-15T07:01:29;18.67;;;11.50;;
11498;SDS011;5806;48.748;9.278;2024-01-15T07:03:56;18.20;;;11.33;;
11498;SDS011;5806;48.748;9.278;2024-01-15T07:06:24;18.70;;;11.23;;
11498;SDS011;5806;48.748;9.278;2024-01-15T07:08:51;19.77;;;12.07;;
11498;SDS011;5806;48.748;9.278;2024-01-15T07:11:18;21.30;;;11.37;;
11498;SDS011;5806;48.748;9.278;2024-01-15T07:13:46;21.30;;;14.10;;
11498;SDS011;5806;48.748;9.278;2024-01-15T07:16:13;19.17;;;12.17;;
11498;SDS011;5806;48.748;9.278;2024-01-15T07:18:41;21.00;;;13.43;;
11498;SDS011;5806;48.748;9.278;2024-01-15T07:21:08;22.20;;;13.93;;
11498;SDS011;5806;48.748;9.278;2024-01-15T07:23:36;18.20;;;12.30;;
11498;SDS011;5806;48.748;9.278;2024-01-15T07:26:04;20.60;;;13.23;;
11498;SDS011;5806;48.748;9.278;2024-01-15T07:28:31;20.83;;;12.47;;
11498;SDS011;5806;48.748;9.278;2024-01-15T07:30:59;21.63;;;12.63;;
11498;SDS011;5806;48.748;9.278;2024-01-15T07:33:28;16.97;;;11.87;;
11498;SDS011;5806;48.748;9.278;2024-01-15T07:35:55;19.57;;;13.17;;
11498;SDS011;5806;48.748;9.278;2024-01-15T07:38:23;17.73;;;12.07;;
11498;SDS011;5806;48.748;9.278;2024-01-15T07:40:51;19.03;;;11.70;;
11498;SDS011;5806;48.748;9.278;2024-01-15T07:43:19;17.57;;;12.27;;
11498;SDS011;5806;48.748;9.278;2024-01-15T07:45:46;16.33;;;11.83;;
11498;SDS011;5806;48.748;9.278;2024-01-15T07:48:14;22.83;;;12.63;;
11498;SDS011;5806;48.748;9.278;2024-01-15T07:50:41;21.63;;;12.80;;
11498;SDS011;5806;48.748;9.278;2024-01-15T07:53:08;21.87;;;12.70;;
11498;SDS011;5806;48.748;9.278;2024-01-15T07:55:36;20.53;;;13.27;;
11498;SDS011;5806;48.748;9.278;2024-01-15T07:58:03;20.77;;;12.80;;
11498;SDS011;5806;48.748;9.278;2024-01-15T08:00:31;20.07;;;12.70;;
11498;SDS011;5806;48.748;9.278;2024-01-15T08:02:58;20.47;;;13.27;;
11498;SDS011;5806;48.748;9.278;2024-01-15T08:05:25;18.47;;;11.47;;
11498;SDS011;5806;48.748;9.278;2024-01-15T08:07:53;19.70;;;12.27;;
11498;SDS011;5806;48.748;9.278;2024-01-15T08:10:20;20.23;;;12.53;;
11498;SDS011;5806;48.748;9.278;2024-01-15T08:12:48;18.17;;;13.13;;
11498;SDS011;5806;48.748;9.278;2024-01-15T08:15:15;23.67;;;13.70;;
11498;SDS011;5806;48.748;9.278;2024-01-15T08:17:44;20.43;;;13.70;;
11498;SDS011;5806;48.748;9.278;2024-01-15T08:20:11;24.27;;;13.80;;
11498;SDS011;5806;48.748;9.278;2024-01-15T08:22:38;24.57;;;15.23;;
11498;SDS011;5806;48.748;9.278;2024-01-15T08:25:06;22.27;;;14.63;;
11498;SDS011;5806;48.748;9.278;2024-01-15T08:27:34;26.67;;;14.43;;
11498;SDS011;5806;48.748;9.278;2024-01-15T08:30:01;23.53;;;13.40;;
11498;SDS011;5806;48.748;9.278;2024-01-15T08:32:29;24.70;;;14.97;;
11498;SDS011;5806;48.748;9.278;2024-01-15T08:34:57;24.90;;;14.27;;
11498;SDS011;5806;48.748;9.278;2024-01-15T08:37:24;27.00;;;14.90;;
11498;SDS011;5806;48.748;9.278;2024-01-15T08:39:52;23.93;;;13.47;;
11498;SDS011;5806;48.748;9.278;2024-01-15T08:42:19;24.30;;;14.60;;
11498;SDS011;5806;48.748;9.278;2024-01-15T08:44:46;25.27;;;14.90;;
11498;SDS011;5806;48.748;9.278;2024-01-15T08:47:14;22.13;;;14.70;;
11498;SDS011;5806;48.748;9.278;2024-01-15T08:49:42;24.03;;;13.60;;
11498;SDS011;5806;48.748;9.278;2024-01-15T08:52:10;24.80;;;15.30;;
11498;SDS011;5806;48.748;9.278;2024-01-15T08:54:39;21.37;;;13.27;;
11498;SDS011;5806;48.748;9.278;2024-01-15T08:57:06;21.03;;;13.70;;
11498;SDS011;5806;48.748;9.278;2024-01-15T08:59:34;18.07;;;12.30;;
11498;SDS011;5806;48.748;9.278;2024-01-15T09:02:01;24.47;;;13.57;;
11498;SDS011;5806;48.748;9.278;2024-01-15T09:04:29;20.60;;;12.93;;
11498;SDS011;5806;48.748;9.278;2024-01-15T09:06:56;17.67;;;12.73;;
11498;SDS011;5806;48.748;9.278;2024-01-15T09:09:23;23.60;;;14.47;;
11498;SDS011;5806;48.748;9.278;2024-01-15T09:11:51;18.90;;;13.07;;
11498;SDS011;5806;48.748;9.278;2024-01-15T09:14:18;24.20;;;14.67;;
11498;SDS011;5806;48.748;9.278;2024-01-15T09:16:47;23.97;;;14.10;;
11498;SDS011;5806;48.748;9.278;2024-01-15T09:19:15;24.60;;;14.37;;
11498;SDS011;5806;48.748;9.278;2024-01-15T09:21:42;27.93;;;15.93;;
11498;SDS011;5806;48.748;9.278;2024-01-15T09:24:09;22.97;;;15.17;;
11498;SDS011;5806;48.748;9.278;2024-01-15T09:26:37;26.00;;;14.87;;
11498;SDS011;5806;48.748;9.278;2024-01-15T09:29:04;21.13;;;14.73;;
11498;SDS011;5806;48.748;9.278;2024-01-15T09:31:32;24.57;;;14.77;;
11498;SDS011;5806;48.748;9.278;2024-01-15T09:33:59;22.23;;;14.13;;
11498;SDS011;5806;48.748;9.278;2024-01-15T09:36:27;19.13;;;14.33;;
11498;SDS011;5806;48.748;9.278;2024-01-15T09:38:55;21.97;;;13.17;;
11498;SDS011;5806;48.748;9.278;2024-01-15T09:41:23;22.53;;;13.70;;
11498;SDS011;5806;48.748;9.278;2024-01-15T09:43:51;19.50;;;12.70;;
11498;SDS011;5806;48.748;9.278;2024-01-15T09:46:18;18.80;;;12.40;;
11498;SDS011;5806;48.748;9.278;2024-01-15T09:48:46;17.47;;;12.17;;
11498;SDS011;5806;48.748;9.278;2024-01-15T09:51:14;16.50;;;11.43;;
11498;SDS011;5806;48.748;9.278;2024-01-15T09:53:43;16.00;;;10.10;;
11498;SDS011;5806;48.748;9.278;2024-01-15T09:56:12;14.10;;;9.93;;
11498;SDS011;5806;48.748;9.278;2024-01-15T09:58:41;13.00;;;8.80;;
11498;SDS011;5806;48.748;9.278;2024-01-15T10:01:09;13.30;;;9.33;;
11498;SDS011;5806;48.748;9.278;2024-01-15T10:03:37;12.57;;;8.30;;
11498;SDS011;5806;48.748;9.278;2024-01-15T10:06:07;11.23;;;9.03;;
11498;SDS011;5806;48.748;9.278;2024-01-15T10:08:37;9.27;;;7.93;;
11498;SDS011;5806;48.748;9.278;2024-01-15T10:11:05;10.47;;;8.13;;
11498;SDS011;5806;48.748;9.278;2024-01-15T10:13:32;12.07;;;8.30;;
11498;SDS011;5806;48.748;9.278;2024-01-15T10:16:01;10.03;;;7.63;;
11498;SDS011;5806;48.748;9.278;2024-01-15T10:18:29;11.67;;;9.20;;
11498;SDS011;5806;48.748;9.278;2024-01-15T10:20:56;8.20;;;6.53;;
11498;SDS011;5806;48.748;9.278;2024-01-15T10:23:24;8.53;;;6.83;;
11498;SDS011;5806;48.748;9.278;2024-01-15T10:25:52;8.53;;;6.67;;
11498;SDS011;5806;48.748;9.278;2024-01-15T10:28:19;10.93;;;7.17;;
11498;SDS011;5806;48.748;9.278;2024-01-15T10:30:47;8.13;;;6.00;;
11498;SDS011;5806;48.748;9.278;2024-01-15T10:33:19;7.40;;;6.07;;
11498;SDS011;5806;48.748;9.278;2024-01-15T10:35:49;9.03;;;6.70;;
11498;SDS011;5806;48.748;9.278;2024-01-15T10:38:17;10.10;;;6.23;;
11498;SDS011;5806;48.748;9.278;2024-01-15T10:40:46;8.33;;;6.27;;
11498;SDS011;5806;48.748;9.278;2024-01-15T10:43:13;6.70;;;5.97;;
11498;SDS011;5806;48.748;9.278;2024-01-15T10:45:41;7.07;;;5.80;;
11498;SDS011;5806;48.748;9.278;2024-01-15T10:48:09;7.37;;;5.37;;
11498;SDS011;5806;48.748;9.278;2024-01-15T10:50:36;6.27;;;5.43;;
11498;SDS011;5806;48.748;9.278;2024-01-15T10:53:04;8.87;;;5.60;;
11498;SDS011;5806;48.748;9.278;2024-01-15T10:55:32;8.33;;;5.00;;
11498;SDS011;5806;48.748;9.278;2024-01-15T10:58:01;7.20;;;5.10;;
11498;SDS011;5806;48.748;9.278;2024-01-15T11:00:30;6.20;;;5.10;;
11498;SDS011;5806;48.748;9.278;2024-01-15T11:02:57;7.93;;;4.93;;
11498;SDS011;5806;48.748;9.278;2024-01-15T11:05:27;4.63;;;4.13;;
11498;SDS011;5806;48.748;9.278;2024-01-15T11:07:55;8.07;;;4.50;;
11498;SDS011;5806;48.748;9.278;2024-01-15T11:10:38;6.87;;;4.93;;
11498;SDS011;5806;48.748;9.278;2024-01-15T11:16:06;5.67;;;3.80;;
11498;SDS011;5806;48.748;9.278;2024-01-15T11:18:36;4.90;;;3.80;;
11498;SDS011;5806;48.748;9.278;2024-01-15T11:23:46;5.00;;;3.73;;
11498;SDS011;5806;48.748;9.278;2024-01-15T11:29:06;4.17;;;3.70;;
11498;SDS011;5806;48.748;9.278;2024-01-15T11:34:10;3.73;;;3.20;;
11498;SDS011;5806;48.748;9.278;2024-01-15T11:39:42;4.70;;;3.47;;
11498;SDS011;5806;48.748;9.278;2024-01-15T11:41:57;4.70;;;3.50;;
11498;SDS011;5806;48.748;9.278;2024-01-15T11:44:27;7.60;;;5.03;;
11498;SDS011;5806;48.748;9.278;2024-01-15T11:52:11;4.07;;;3.13;;
11498;SDS011;5806;48.748;9.278;2024-01-15T11:54:40;3.53;;;3.23;;
11498;SDS011;5806;48.748;9.278;2024-01-15T11:57:17;3.87;;;3.47;;
11498;SDS011;5806;48.748;9.278;2024-01-15T11:59:41;5.60;;;4.10;;
11498;SDS011;5806;48.748;9.278;2024-01-15T12:02:08;6.10;;;4.10;;
11498;SDS011;5806;48.748;9.278;2024-01-15T12:04:38;4.70;;;4.20;;
11498;SDS011;5806;48.748;9.278;2024-01-15T12:07:06;6.97;;;4.63;;
11498;SDS011;5806;48.748;9.278;2024-01-15T12:09:33;5.47;;;4.60;;
11498;SDS011;5806;48.748;9.278;2024-01-15T12:12:07;5.30;;;4.23;;
11498;SDS011;5806;48.748;9.278;2024-01-15T12:14:32;5.20;;;4.70;;
11498;SDS011;5806;48.748;9.278;2024-01-15T12:17:00;7.13;;;5.23;;
11498;SDS011;5806;48.748;9.278;2024-01-15T12:19:27;7.80;;;5.40;;
11498;SDS011;5806;48.748;9.278;2024-01-15T12:21:55;6.30;;;5.60;;
11498;SDS011;5806;48.748;9.278;2024-01-15T12:24:22;7.83;;;5.57;;
11498;SDS011;5806;48.748;9.278;2024-01-15T12:26:50;7.23;;;5.60;;
11498;SDS011;5806;48.748;9.278;2024-01-15T12:29:17;8.37;;;5.73;;
11498;SDS011;5806;48.748;9.278;2024-01-15T12:31:49;11.47;;;6.40;;
11498;SDS011;5806;48.748;9.278;2024-01-15T12:34:17;9.03;;;6.00;;
11498;SDS011;5806;48.748;9.278;2024-01-15T12:36:48;8.13;;;6.63;;
11498;SDS011;5806;48.748;9.278;2024-01-15T12:39:16;7.30;;;6.50;;
11498;SDS011;5806;48.748;9.278;2024-01-15T12:41:44;9.33;;;6.93;;
11498;SDS011;5806;48.748;9.278;2024-01-15T12:44:12;7.77;;;5.70;;
11498;SDS011;5806;48.748;9.278;2024-01-15T12:46:39;9.40;;;5.90;;
11498;SDS011;5806;48.748;9.278;2024-01-15T12:49:07;9.17;;;5.97;;
11498;SDS011;5806;48.748;9.278;2024-01-15T12:51:35;8.57;;;5.67;;
11498;SDS011;5806;48.748;9.278;2024-01-15T12:54:02;8.17;;;5.00;;
11498;SDS011;5806;48.748;9.278;2024-01-15T12:56:30;9.27;;;5.33;;
11498;SDS011;5806;48.748;9.278;2024-01-15T12:58:57;10.70;;;6.10;;
11498;SDS011;5806;48.748;9.278;2024-01-15T13:01:24;12.37;;;7.30;;
11498;SDS011;5806;48.748;9.278;2024-01-15T13:03:52;9.63;;;5.07;;
11498;SDS011;5806;48.748;9.278;2024-01-15T13:06:19;11.73;;;5.90;;
11498;SDS011;5806;48.748;9.278;2024-01-15T13:08:47;9.37;;;5.30;;
11498;SDS011;5806;48.748;9.278;2024-01-15T13:11:14;9.40;;;5.30;;
11498;SDS011;5806;48.748;9.278;2024-01-15T13:13:41;8.07;;;5.20;;
11498;SDS011;5806;48.748;9.278;2024-01-15T13:16:09;8.43;;;4.93;;
11498;SDS011;5806;48.748;9.278;2024-01-15T13:18:36;8.47;;;4.87;;
11498;SDS011;5806;48.748;9.278;2024-01-15T13:21:04;12.37;;;5.57;;
11498;SDS011;5806;48.748;9.278;2024-01-15T13:23:31;11.67;;;5.13;;
11498;SDS011;5806;48.748;9.278;2024-01-15T13:25:59;12.03;;;5.03;;
11498;SDS011;5806;48.748;9.278;2024-01-15T13:28:26;10.10;;;4.87;;
11498;SDS011;5806;48.748;9.278;2024-01-15T13:30:53;9.70;;;4.50;;
11498;SDS011;5806;48.748;9.278;2024-01-15T13:33:21;7.87;;;4.53;;
11498;SDS011;5806;48.748;9.278;2024-01-15T13:35:49;7.60;;;4.50;;
11498;SDS011;5806;48.748;9.278;2024-01-15T13:38:16;5.60;;;3.43;;
11498;SDS011;5806;48.748;9.278;2024-01-15T13:40:43;6.40;;;3.60;;
11498;SDS011;5806;48.748;9.278;2024-01-15T13:43:11;6.70;;;3.77;;
11498;SDS011;5806;48.748;9.278;2024-01-15T13:45:41;6.40;;;3.30;;
11498;SDS011;5806;48.748;9.278;2024-01-15T13:48:08;6.73;;;3.50;;
11498;SDS011;5806;48.748;9.278;2024-01-15T13:50:36;10.60;;;3.30;;
11498;SDS011;5806;48.748;9.278;2024-01-15T13:53:03;6.57;;;3.20;;
11498;SDS011;5806;48.748;9.278;2024-01-15T13:55:31;4.27;;;3.87;;
11498;SDS011;5806;48.748;9.278;2024-01-15T13:57:58;6.77;;;4.10;;
11498;SDS011;5806;48.748;9.278;2024-01-15T14:00:26;4.80;;;3.67;;
11498;SDS011;5806;48.748;9.278;2024-01-15T14:02:54;5.17;;;3.27;;
11498;SDS011;5806;48.748;9.278;2024-01-15T14:05:22;5.77;;;3.60;;
11498;SDS011;5806;48.748;9.278;2024-01-15T14:07:49;6.57;;;4.57;;
11498;SDS011;5806;48.748;9.278;2024-01-15T14:10:17;10.63;;;4.27;;
11498;SDS011;5806;48.748;9.278;2024-01-15T14:12:44;6.73;;;3.80;;
11498;SDS011;5806;48.748;9.278;2024-01-15T14:15:12;7.20;;;3.60;;
11498;SDS011;5806;48.748;9.278;2024-01-15T14:17:39;4.43;;;3.27;;
11498;SDS011;5806;48.748;9.278;2024-01-15T14:20:07;7.87;;;3.40;;
11498;SDS011;5806;48.748;9.278;2024-01-15T14:22:35;5.23;;;4.23;;
11498;SDS011;5806;48.748;9.278;2024-01-15T14:25:03;4.73;;;3.17;;
11498;SDS011;5806;48.748;9.278;2024-01-15T14:27:30;5.67;;;2.80;;
11498;SDS011;5806;48.748;9.278;2024-01-15T14:29:58;3.07;;;2.47;;
11498;SDS011;5806;48.748;9.278;2024-01-15T14:32:25;2.90;;;2.60;;
11498;SDS011;5806;48.748;9.278;2024-01-15T14:34:53;4.50;;;3.00;;
11498;SDS011;5806;48.748;9.278;2024-01-15T14:37:22;5.60;;;2.90;;
11498;SDS011;5806;48.748;9.278;2024-01-15T14:39:49;2.90;;;2.20;;
11498;SDS011;5806;48.748;9.278;2024-01-15T14:42:17;2.83;;;2.40;;
11498;SDS011;5806;48.748;9.278;2024-01-15T14:44:45;2.37;;;2.17;;
11498;SDS011;5806;48.748;9.278;2024-01-15T14:47:12;2.40;;;2.20;;
11498;SDS011;5806;48.748;9.278;2024-01-15T14:49:39;4.00;;;3.00;;
11498;SDS011;5806;48.748;9.278;2024-01-15T14:52:07;4.10;;;2.73;;
11498;SDS011;5806;48.748;9.278;2024-01-15T14:54:34;3.13;;;2.17;;
11498;SDS011;5806;48.748;9.278;2024-01-15T14:57:02;4.83;;;2.33;;
11498;SDS011;5806;48.748;9.278;2024-01-15T14:59:29;3.17;;;2.60;;
11498;SDS011;5806;48.748;9.278;2024-01-15T15:01:57;2.63;;;2.43;;
11498;SDS011;5806;48.748;9.278;2024-01-15T15:04:25;3.37;;;2.70;;